sensor_id;sensor_type;location;lat;lon;timestamp;P1;durP1;ratioP1;P2;durP2;ratioP2
75021;SDS011;63583;49.976;20.182;2023-05-07T00:01:28;18.13;;;10.07;;
75021;SDS011;63583;49.976;20.182;2023-05-07T00:03:53;19.85;;;10.02;;
75021;SDS011;63583;49.976;20.182;2023-05-07T00:06:19;22.48;;;10.88;;
75021;SDS011;63583;49.976;20.182;2023-05-07T00:08:45;21.08;;;10.98;;
75021;SDS011;63583;49.976;20.182;2023-05-07T00:11:10;23.05;;;11.82;;
75021;SDS011;63583;49.976;20.182;2023-05-07T00:13:36;21.40;;;11.20;;
75021;SDS011;63583;49.976;20.182;2023-05-07T00:16:02;25.85;;;11.40;;
75021;SDS011;63583;49.976;20.182;2023-05-07T00:18:28;20.45;;;11.15;;
75021;SDS011;63583;49.976;20.182;2023-05-07T00:20:54;24.95;;;12.13;;
75021;SDS011;63583;49.976;20.182;2023-05-07T00:23:20;24.27;;;13.27;;
75021;SDS011;63583;49.976;20.182;2023-05-07T00:25:45;23.60;;;11.00;;
75021;SDS011;63583;49.976;20.182;2023-05-07T00:28:11;24.15;;;10.02;;
75021;SDS011;63583;49.976;20.182;2023-05-07T00:30:36;22.30;;;11.57;;
75021;SDS011;63583;49.976;20.182;2023-05-07T00:33:02;23.20;;;10.38;;
75021;SDS011;63583;49.976;20.182;2023-05-07T00:35:28;23.08;;;10.48;;
75021;SDS011;63583;49.976;20.182;2023-05-07T00:37:55;26.92;;;12.88;;
75021;SDS011;63583;49.976;20.182;2023-05-07T00:40:20;22.80;;;11.93;;
75021;SDS011;63583;49.976;20.182;2023-05-07T00:42:46;30.27;;;12.27;;
75021;SDS011;63583;49.976;20.182;2023-05-07T00:45:14;23.92;;;11.65;;
75021;SDS011;63583;49.976;20.182;2023-05-07T00:47:41;28.83;;;13.23;;
75021;SDS011;63583;49.976;20.182;2023-05-07T00:50:07;27.45;;;12.63;;
75021;SDS011;63583;49.976;20.182;2023-05-07T00:52:33;27.45;;;12.82;;
75021;SDS011;63583;49.976;20.182;2023-05-07T00:55:04;33.55;;;14.23;;
75021;SDS011;63583;49.976;20.182;2023-05-07T00:57:37;31.73;;;13.60;;
75021;SDS011;63583;49.976;20.182;2023-05-07T01:00:06;31.30;;;13.75;;
75021;SDS011;63583;49.976;20.182;2023-05-07T01:02:36;28.98;;;12.73;;
75021;SDS011;63583;49.976;20.182;2023-05-07T01:05:02;29.92;;;12.80;;
75021;SDS011;63583;49.976;20.182;2023-05-07T01:07:31;26.98;;;14.20;;
75021;SDS011;63583;49.976;20.182;2023-05-07T01:09:58;30.27;;;11.90;;
75021;SDS011;63583;49.976;20.182;2023-05-07T01:12:25;31.35;;;14.05;;
75021;SDS011;63583;49.976;20.182;2023-05-07T01:14:51;26.67;;;13.68;;
75021;SDS011;63583;49.976;20.182;2023-05-07T01:17:17;31.75;;;13.48;;
75021;SDS011;63583;49.976;20.182;2023-05-07T01:19:43;28.08;;;13.15;;
75021;SDS011;63583;49.976;20.182;2023-05-07T01:22:10;23.08;;;12.63;;
75021;SDS011;63583;49.976;20.182;2023-05-07T01:24:37;29.50;;;12.35;;
75021;SDS011;63583;49.976;20.182;2023-05-07T01:27:03;27.77;;;13.30;;
75021;SDS011;63583;49.976;20.182;2023-05-07T01:29:29;27.13;;;13.05;;
75021;SDS011;63583;49.976;20.182;2023-05-07T01:31:57;23.70;;;11.15;;
75021;SDS011;63583;49.976;20.182;2023-05-07T01:34:24;20.05;;;10.70;;
75021;SDS011;63583;49.976;20.182;2023-05-07T01:36:52;23.15;;;11.27;;
75021;SDS011;63583;49.976;20.182;2023-05-07T01:39:18;23.20;;;11.45;;
75021;SDS011;63583;49.976;20.182;2023-05-07T01:41:44;22.77;;;11.27;;
75021;SDS011;63583;49.976;20.182;2023-05-07T01:44:10;19.95;;;10.60;;
75021;SDS011;63583;49.976;20.182;2023-05-07T01:46:38;22.00;;;10.63;;
75021;SDS011;63583;49.976;20.182;2023-05-07T01:49:04;22.00;;;11.52;;
75021;SDS011;63583;49.976;20.182;2023-05-07T01:51:30;24.35;;;11.15;;
75021;SDS011;63583;49.976;20.182;2023-05-07T01:53:56;22.50;;;10.95;;
75021;SDS011;63583;49.976;20.182;2023-05-07T01:56:22;24.88;;;11.43;;
75021;SDS011;63583;49.976;20.182;2023-05-07T01:58:48;25.35;;;11.70;;
75021;SDS011;63583;49.976;20.182;2023-05-07T02:01:14;26.55;;;12.93;;
75021;SDS011;63583;49.976;20.182;2023-05-07T02:03:40;28.05;;;13.68;;
75021;SDS011;63583;49.976;20.182;2023-05-07T02:06:06;29.98;;;14.02;;
75021;SDS011;63583;49.976;20.182;2023-05-07T02:08:31;32.03;;;14.30;;
75021;SDS011;63583;49.976;20.182;2023-05-07T02:10:57;31.80;;;13.93;;
75021;SDS011;63583;49.976;20.182;2023-05-07T02:13:23;28.48;;;13.77;;
75021;SDS011;63583;49.976;20.182;2023-05-07T02:15:49;29.45;;;13.82;;
75021;SDS011;63583;49.976;20.182;2023-05-07T02:18:16;35.58;;;13.10;;
75021;SDS011;63583;49.976;20.182;2023-05-07T02:20:43;28.92;;;12.88;;
75021;SDS011;63583;49.976;20.182;2023-05-07T02:23:08;33.17;;;14.48;;
75021;SDS011;63583;49.976;20.182;2023-05-07T02:25:34;34.17;;;14.98;;
75021;SDS011;63583;49.976;20.182;2023-05-07T02:27:59;38.15;;;14.95;;
75021;SDS011;63583;49.976;20.182;2023-05-07T02:30:25;33.83;;;14.15;;
75021;SDS011;63583;49.976;20.182;2023-05-07T02:32:51;30.92;;;13.40;;
75021;SDS011;63583;49.976;20.182;2023-05-07T02:35:17;28.67;;;12.35;;
75021;SDS011;63583;49.976;20.182;2023-05-07T02:37:42;30.17;;;12.52;;
75021;SDS011;63583;49.976;20.182;2023-05-07T02:40:08;28.67;;;13.10;;
75021;SDS011;63583;49.976;20.182;2023-05-07T02:42:34;27.85;;;11.10;;
75021;SDS011;63583;49.976;20.182;2023-05-07T02:45:00;17.73;;;8.93;;
75021;SDS011;63583;49.976;20.182;2023-05-07T02:47:26;25.70;;;10.88;;
75021;SDS011;63583;49.976;20.182;2023-05-07T02:49:54;19.83;;;9.38;;
75021;SDS011;63583;49.976;20.182;2023-05-07T02:52:21;22.55;;;9.90;;
75021;SDS011;63583;49.976;20.182;2023-05-07T02:54:47;21.40;;;9.27;;
75021;SDS011;63583;49.976;20.182;2023-05-07T02:57:13;20.88;;;8.90;;
75021;SDS011;63583;49.976;20.182;2023-05-07T02:59:38;16.20;;;8.45;;
75021;SDS011;63583;49.976;20.182;2023-05-07T03:02:04;17.65;;;8.95;;
75021;SDS011;63583;49.976;20.182;2023-05-07T03:04:30;16.20;;;7.93;;
75021;SDS011;63583;49.976;20.182;2023-05-07T03:06:56;15.68;;;8.18;;
75021;SDS011;63583;49.976;20.182;2023-05-07T03:09:21;20.10;;;8.80;;
75021;SDS011;63583;49.976;20.182;2023-05-07T03:11:47;14.45;;;8.50;;
75021;SDS011;63583;49.976;20.182;2023-05-07T03:14:13;17.40;;;7.63;;
75021;SDS011;63583;49.976;20.182;2023-05-07T03:16:39;17.17;;;8.32;;
75021;SDS011;63583;49.976;20.182;2023-05-07T03:19:05;15.88;;;7.15;;
75021;SDS011;63583;49.976;20.182;2023-05-07T03:21:30;15.40;;;8.88;;
75021;SDS011;63583;49.976;20.182;2023-05-07T03:23:59;16.83;;;8.45;;
75021;SDS011;63583;49.976;20.182;2023-05-07T03:26:24;20.20;;;10.43;;
75021;SDS011;63583;49.976;20.182;2023-05-07T03:28:51;19.55;;;9.35;;
75021;SDS011;63583;49.976;20.182;2023-05-07T03:31:17;19.23;;;9.30;;
75021;SDS011;63583;49.976;20.182;2023-05-07T03:33:54;23.00;;;10.65;;
75021;SDS011;63583;49.976;20.182;2023-05-07T03:36:21;19.20;;;8.18;;
75021;SDS011;63583;49.976;20.182;2023-05-07T03:38:48;16.67;;;9.70;;
75021;SDS011;63583;49.976;20.182;2023-05-07T03:41:14;19.20;;;8.23;;
75021;SDS011;63583;49.976;20.182;2023-05-07T03:43:40;20.42;;;9.10;;
75021;SDS011;63583;49.976;20.182;2023-05-07T03:46:05;15.68;;;7.65;;
75021;SDS011;63583;49.976;20.182;2023-05-07T03:48:31;15.05;;;7.60;;
75021;SDS011;63583;49.976;20.182;2023-05-07T03:50:57;14.75;;;7.97;;
75021;SDS011;63583;49.976;20.182;2023-05-07T03:53:23;16.92;;;7.80;;
75021;SDS011;63583;49.976;20.182;2023-05-07T03:55:48;16.38;;;7.43;;
75021;SDS011;63583;49.976;20.182;2023-05-07T03:58:15;14.80;;;6.90;;
75021;SDS011;63583;49.976;20.182;2023-05-07T04:00:40;12.93;;;6.72;;
75021;SDS011;63583;49.976;20.182;2023-05-07T04:03:06;15.85;;;7.45;;
75021;SDS011;63583;49.976;20.182;2023-05-07T04:05:32;13.65;;;7.20;;
75021;SDS011;63583;49.976;20.182;2023-05-07T04:07:58;15.13;;;7.03;;
75021;SDS011;63583;49.976;20.182;2023-05-07T04:10:24;13.23;;;6.75;;
75021;SDS011;63583;49.976;20.182;2023-05-07T04:12:50;13.15;;;6.95;;
75021;SDS011;63583;49.976;20.182;2023-05-07T04:15:16;13.55;;;6.55;;
75021;SDS011;63583;49.976;20.182;2023-05-07T04:17:42;13.68;;;6.60;;
75021;SDS011;63583;49.976;20.182;2023-05-07T04:20:15;11.75;;;6.03;;
75021;SDS011;63583;49.976;20.182;2023-05-07T04:22:41;10.43;;;6.63;;
75021;SDS011;63583;49.976;20.182;2023-05-07T04:25:08;12.25;;;5.63;;
75021;SDS011;63583;49.976;20.182;2023-05-07T04:27:37;12.80;;;6.18;;
75021;SDS011;63583;49.976;20.182;2023-05-07T04:30:03;11.90;;;5.75;;
75021;SDS011;63583;49.976;20.182;2023-05-07T04:32:29;14.63;;;6.63;;
75021;SDS011;63583;49.976;20.182;2023-05-07T04:34:55;13.70;;;6.97;;
75021;SDS011;63583;49.976;20.182;2023-05-07T04:37:21;12.25;;;6.35;;
75021;SDS011;63583;49.976;20.182;2023-05-07T04:39:47;14.98;;;7.30;;
75021;SDS011;63583;49.976;20.182;2023-05-07T04:42:16;15.57;;;8.40;;
75021;SDS011;63583;49.976;20.182;2023-05-07T04:44:45;14.52;;;7.50;;
75021;SDS011;63583;49.976;20.182;2023-05-07T04:47:11;17.17;;;8.07;;
75021;SDS011;63583;49.976;20.182;2023-05-07T04:49:37;13.02;;;6.68;;
75021;SDS011;63583;49.976;20.182;2023-05-07T04:52:04;15.93;;;7.07;;
75021;SDS011;63583;49.976;20.182;2023-05-07T04:54:30;13.85;;;6.95;;
75021;SDS011;63583;49.976;20.182;2023-05-07T04:56:56;19.90;;;8.55;;
75021;SDS011;63583;49.976;20.182;2023-05-07T04:59:21;17.17;;;7.80;;
75021;SDS011;63583;49.976;20.182;2023-05-07T05:01:47;15.15;;;7.82;;
75021;SDS011;63583;49.976;20.182;2023-05-07T05:04:13;17.13;;;7.95;;
75021;SDS011;63583;49.976;20.182;2023-05-07T05:06:39;18.60;;;8.85;;
75021;SDS011;63583;49.976;20.182;2023-05-07T05:09:04;17.67;;;8.15;;
75021;SDS011;63583;49.976;20.182;2023-05-07T05:11:30;15.82;;;7.82;;
75021;SDS011;63583;49.976;20.182;2023-05-07T05:13:56;17.02;;;8.32;;
75021;SDS011;63583;49.976;20.182;2023-05-07T05:16:22;16.23;;;8.40;;
75021;SDS011;63583;49.976;20.182;2023-05-07T05:18:48;13.50;;;7.45;;
75021;SDS011;63583;49.976;20.182;2023-05-07T05:21:13;14.02;;;6.57;;
75021;SDS011;63583;49.976;20.182;2023-05-07T05:23:39;11.25;;;6.03;;
75021;SDS011;63583;49.976;20.182;2023-05-07T05:26:05;14.88;;;6.65;;
75021;SDS011;63583;49.976;20.182;2023-05-07T05:28:30;14.25;;;7.55;;
75021;SDS011;63583;49.976;20.182;2023-05-07T05:30:56;16.83;;;6.20;;
75021;SDS011;63583;49.976;20.182;2023-05-07T05:33:21;12.32;;;6.25;;
75021;SDS011;63583;49.976;20.182;2023-05-07T05:35:47;11.88;;;5.97;;
75021;SDS011;63583;49.976;20.182;2023-05-07T05:38:13;11.38;;;5.68;;
75021;SDS011;63583;49.976;20.182;2023-05-07T05:40:38;11.38;;;6.20;;
75021;SDS011;63583;49.976;20.182;2023-05-07T05:43:04;13.93;;;5.95;;
75021;SDS011;63583;49.976;20.182;2023-05-07T05:45:30;11.40;;;5.63;;
75021;SDS011;63583;49.976;20.182;2023-05-07T05:47:56;13.38;;;7.15;;
75021;SDS011;63583;49.976;20.182;2023-05-07T05:50:22;22.20;;;7.75;;
75021;SDS011;63583;49.976;20.182;2023-05-07T05:52:48;15.27;;;7.22;;
75021;SDS011;63583;49.976;20.182;2023-05-07T05:55:14;71.60;;;12.85;;
75021;SDS011;63583;49.976;20.182;2023-05-07T05:57:39;13.23;;;6.93;;
75021;SDS011;63583;49.976;20.182;2023-05-07T06:00:06;11.20;;;6.18;;
75021;SDS011;63583;49.976;20.182;2023-05-07T06:02:33;13.02;;;7.05;;
75021;SDS011;63583;49.976;20.182;2023-05-07T06:04:58;11.38;;;6.90;;
75021;SDS011;63583;49.976;20.182;2023-05-07T06:07:24;9.70;;;5.32;;
75021;SDS011;63583;49.976;20.182;2023-05-07T06:09:50;11.82;;;5.43;;
75021;SDS011;63583;49.976;20.182;2023-05-07T06:12:16;11.40;;;5.93;;
75021;SDS011;63583;49.976;20.182;2023-05-07T06:14:44;9.98;;;5.65;;
75021;SDS011;63583;49.976;20.182;2023-05-07T06:17:12;8.05;;;4.68;;
75021;SDS011;63583;49.976;20.182;2023-05-07T06:19:38;5.97;;;3.92;;
75021;SDS011;63583;49.976;20.182;2023-05-07T06:22:03;37.95;;;7.07;;
75021;SDS011;63583;49.976;20.182;2023-05-07T06:24:29;9.52;;;5.05;;
75021;SDS011;63583;49.976;20.182;2023-05-07T06:26:55;9.02;;;4.28;;
75021;SDS011;63583;49.976;20.182;2023-05-07T06:29:21;12.88;;;4.18;;
75021;SDS011;63583;49.976;20.182;2023-05-07T06:31:46;7.97;;;4.03;;
75021;SDS011;63583;49.976;20.182;2023-05-07T06:34:12;9.25;;;4.95;;
75021;SDS011;63583;49.976;20.182;2023-05-07T06:36:41;10.20;;;4.85;;
75021;SDS011;63583;49.976;20.182;2023-05-07T06:39:06;11.70;;;5.05;;
75021;SDS011;63583;49.976;20.182;2023-05-07T06:41:33;7.90;;;4.72;;
75021;SDS011;63583;49.976;20.182;2023-05-07T06:44:01;12.32;;;4.93;;
75021;SDS011;63583;49.976;20.182;2023-05-07T06:46:28;10.18;;;5.38;;
75021;SDS011;63583;49.976;20.182;2023-05-07T06:48:55;9.48;;;5.18;;
75021;SDS011;63583;49.976;20.182;2023-05-07T06:51:22;10.20;;;5.22;;
75021;SDS011;63583;49.976;20.182;2023-05-07T06:53:48;11.43;;;5.45;;
75021;SDS011;63583;49.976;20.182;2023-05-07T06:56:13;12.57;;;4.72;;
75021;SDS011;63583;49.976;20.182;2023-05-07T06:58:40;12.25;;;5.03;;
75021;SDS011;63583;49.976;20.182;2023-05-07T07:01:05;10.60;;;4.75;;
75021;SDS011;63583;49.976;20.182;2023-05-07T07:03:33;9.15;;;4.22;;
75021;SDS011;63583;49.976;20.182;2023-05-07T07:05:59;8.35;;;5.15;;
75021;SDS011;63583;49.976;20.182;2023-05-07T07:08:27;9.93;;;4.97;;
75021;SDS011;63583;49.976;20.182;2023-05-07T07:10:53;8.27;;;4.57;;
75021;SDS011;63583;49.976;20.182;2023-05-07T07:13:19;10.20;;;5.53;;
75021;SDS011;63583;49.976;20.182;2023-05-07T07:15:44;10.35;;;5.05;;
75021;SDS011;63583;49.976;20.182;2023-05-07T07:18:10;8.27;;;4.65;;
75021;SDS011;63583;49.976;20.182;2023-05-07T07:20:36;10.20;;;4.50;;
75021;SDS011;63583;49.976;20.182;2023-05-07T07:23:02;8.70;;;4.88;;
75021;SDS011;63583;49.976;20.182;2023-05-07T07:25:27;10.43;;;5.53;;
75021;SDS011;63583;49.976;20.182;2023-05-07T07:27:53;8.13;;;4.60;;
75021;SDS011;63583;49.976;20.182;2023-05-07T07:30:19;9.10;;;5.10;;
75021;SDS011;63583;49.976;20.182;2023-05-07T07:32:45;8.52;;;4.38;;
75021;SDS011;63583;49.976;20.182;2023-05-07T07:35:10;7.07;;;4.72;;
75021;SDS011;63583;49.976;20.182;2023-05-07T07:37:36;8.75;;;4.40;;
75021;SDS011;63583;49.976;20.182;2023-05-07T07:40:01;7.07;;;3.88;;
75021;SDS011;63583;49.976;20.182;2023-05-07T07:42:29;7.43;;;4.30;;
75021;SDS011;63583;49.976;20.182;2023-05-07T07:44:55;5.82;;;3.80;;
75021;SDS011;63583;49.976;20.182;2023-05-07T07:47:22;8.48;;;4.07;;
75021;SDS011;63583;49.976;20.182;2023-05-07T07:49:48;6.47;;;3.90;;
75021;SDS011;63583;49.976;20.182;2023-05-07T07:52:15;9.52;;;5.07;;
75021;SDS011;63583;49.976;20.182;2023-05-07T07:54:40;8.23;;;4.43;;
75021;SDS011;63583;49.976;20.182;2023-05-07T07:57:06;6.30;;;4.15;;
75021;SDS011;63583;49.976;20.182;2023-05-07T07:59:33;6.78;;;4.05;;
75021;SDS011;63583;49.976;20.182;2023-05-07T08:01:59;7.60;;;3.97;;
75021;SDS011;63583;49.976;20.182;2023-05-07T08:04:24;8.00;;;4.07;;
75021;SDS011;63583;49.976;20.182;2023-05-07T08:06:50;8.48;;;3.67;;
75021;SDS011;63583;49.976;20.182;2023-05-07T08:09:15;9.70;;;5.70;;
75021;SDS011;63583;49.976;20.182;2023-05-07T08:11:41;4.68;;;3.15;;
75021;SDS011;63583;49.976;20.182;2023-05-07T08:14:07;8.13;;;5.13;;
75021;SDS011;63583;49.976;20.182;2023-05-07T08:16:33;6.97;;;4.22;;
75021;SDS011;63583;49.976;20.182;2023-05-07T08:18:58;7.40;;;3.90;;
75021;SDS011;63583;49.976;20.182;2023-05-07T08:21:24;7.45;;;4.50;;
75021;SDS011;63583;49.976;20.182;2023-05-07T08:23:51;4.65;;;3.13;;
75021;SDS011;63583;49.976;20.182;2023-05-07T08:26:16;7.72;;;4.38;;
75021;SDS011;63583;49.976;20.182;2023-05-07T08:28:42;10.15;;;6.35;;
75021;SDS011;63583;49.976;20.182;2023-05-07T08:31:08;5.57;;;3.72;;
75021;SDS011;63583;49.976;20.182;2023-05-07T08:33:33;12.65;;;6.50;;
75021;SDS011;63583;49.976;20.182;2023-05-07T08:35:59;13.65;;;6.40;;
75021;SDS011;63583;49.976;20.182;2023-05-07T08:38:25;7.82;;;4.85;;
75021;SDS011;63583;49.976;20.182;2023-05-07T08:40:51;5.88;;;3.58;;
75021;SDS011;63583;49.976;20.182;2023-05-07T08:43:18;9.18;;;6.30;;
75021;SDS011;63583;49.976;20.182;2023-05-07T08:45:45;8.90;;;5.50;;
75021;SDS011;63583;49.976;20.182;2023-05-07T08:48:14;9.57;;;4.70;;
75021;SDS011;63583;49.976;20.182;2023-05-07T08:50:41;8.48;;;3.92;;
75021;SDS011;63583;49.976;20.182;2023-05-07T08:53:07;5.50;;;3.88;;
75021;SDS011;63583;49.976;20.182;2023-05-07T08:55:33;6.05;;;3.70;;
75021;SDS011;63583;49.976;20.182;2023-05-07T08:57:59;6.93;;;4.25;;
75021;SDS011;63583;49.976;20.182;2023-05-07T09:00:26;7.60;;;4.63;;
75021;SDS011;63583;49.976;20.182;2023-05-07T09:02:55;7.57;;;4.47;;
75021;SDS011;63583;49.976;20.182;2023-05-07T09:05:21;5.60;;;3.72;;
75021;SDS011;63583;49.976;20.182;2023-05-07T09:07:47;7.32;;;4.10;;
75021;SDS011;63583;49.976;20.182;2023-05-07T09:10:13;6.05;;;3.15;;
75021;SDS011;63583;49.976;20.182;2023-05-07T09:12:39;5.57;;;3.38;;
75021;SDS011;63583;49.976;20.182;2023-05-07T09:15:05;8.80;;;5.15;;
75021;SDS011;63583;49.976;20.182;2023-05-07T09:17:31;7.72;;;3.97;;
75021;SDS011;63583;49.976;20.182;2023-05-07T09:20:02;8.63;;;4.13;;
75021;SDS011;63583;49.976;20.182;2023-05-07T09:22:31;5.72;;;3.75;;
75021;SDS011;63583;49.976;20.182;2023-05-07T09:24:58;6.43;;;4.15;;
75021;SDS011;63583;49.976;20.182;2023-05-07T09:27:24;8.32;;;4.90;;
75021;SDS011;63583;49.976;20.182;2023-05-07T09:29:51;6.78;;;4.05;;
75021;SDS011;63583;49.976;20.182;2023-05-07T09:32:16;8.52;;;5.07;;
75021;SDS011;63583;49.976;20.182;2023-05-07T09:34:42;9.20;;;4.85;;
75021;SDS011;63583;49.976;20.182;2023-05-07T09:37:08;6.32;;;4.13;;
75021;SDS011;63583;49.976;20.182;2023-05-07T09:39:40;7.80;;;4.95;;
75021;SDS011;63583;49.976;20.182;2023-05-07T09:42:10;7.88;;;4.57;;
75021;SDS011;63583;49.976;20.182;2023-05-07T09:44:37;6.93;;;4.22;;
75021;SDS011;63583;49.976;20.182;2023-05-07T09:47:06;7.85;;;4.75;;
75021;SDS011;63583;49.976;20.182;2023-05-07T09:49:34;6.97;;;4.53;;
75021;SDS011;63583;49.976;20.182;2023-05-07T09:52:01;7.65;;;4.25;;
75021;SDS011;63583;49.976;20.182;2023-05-07T09:54:32;6.13;;;3.88;;
75021;SDS011;63583;49.976;20.182;2023-05-07T09:56:58;6.55;;;3.92;;
75021;SDS011;63583;49.976;20.182;2023-05-07T09:59:27;9.30;;;3.78;;
75021;SDS011;63583;49.976;20.182;2023-05-07T10:01:56;8.77;;;5.05;;
75021;SDS011;63583;49.976;20.182;2023-05-07T10:04:24;7.32;;;4.40;;
75021;SDS011;63583;49.976;20.182;2023-05-07T10:06:51;5.85;;;4.05;;
75021;SDS011;63583;49.976;20.182;2023-05-07T10:09:17;8.77;;;4.78;;
75021;SDS011;63583;49.976;20.182;2023-05-07T10:11:43;5.43;;;3.60;;
75021;SDS011;63583;49.976;20.182;2023-05-07T10:14:10;7.88;;;4.65;;
75021;SDS011;63583;49.976;20.182;2023-05-07T10:16:36;7.45;;;4.22;;
75021;SDS011;63583;49.976;20.182;2023-05-07T10:19:05;7.30;;;4.43;;
75021;SDS011;63583;49.976;20.182;2023-05-07T10:21:36;8.63;;;5.28;;
75021;SDS011;63583;49.976;20.182;2023-05-07T10:24:04;9.20;;;4.97;;
75021;SDS011;63583;49.976;20.182;2023-05-07T10:26:32;8.00;;;4.28;;
75021;SDS011;63583;49.976;20.182;2023-05-07T10:29:01;6.95;;;4.43;;
75021;SDS011;63583;49.976;20.182;2023-05-07T10:34:29;6.72;;;4.25;;
75021;SDS011;63583;49.976;20.182;2023-05-07T10:37:01;6.85;;;3.42;;
75021;SDS011;63583;49.976;20.182;2023-05-07T10:39:28;8.75;;;4.10;;
75021;SDS011;63583;49.976;20.182;2023-05-07T10:41:55;7.53;;;3.83;;
75021;SDS011;63583;49.976;20.182;2023-05-07T10:44:29;7.05;;;4.03;;
75021;SDS011;63583;49.976;20.182;2023-05-07T10:47:03;7.32;;;4.43;;
75021;SDS011;63583;49.976;20.182;2023-05-07T10:49:30;9.40;;;4.90;;
75021;SDS011;63583;49.976;20.182;2023-05-07T10:52:12;6.65;;;4.15;;
75021;SDS011;63583;49.976;20.182;2023-05-07T10:54:41;6.70;;;4.25;;
75021;SDS011;63583;49.976;20.182;2023-05-07T11:00:01;8.10;;;4.88;;
75021;SDS011;63583;49.976;20.182;2023-05-07T11:05:30;7.90;;;4.70;;
75021;SDS011;63583;49.976;20.182;2023-05-07T11:07:58;9.32;;;5.25;;
75021;SDS011;63583;49.976;20.182;2023-05-07T11:16:18;7.10;;;4.70;;
75021;SDS011;63583;49.976;20.182;2023-05-07T11:18:53;9.05;;;5.18;;
75021;SDS011;63583;49.976;20.182;2023-05-07T11:21:53;9.63;;;5.45;;
75021;SDS011;63583;49.976;20.182;2023-05-07T11:24:12;6.68;;;4.50;;
75021;SDS011;63583;49.976;20.182;2023-05-07T11:26:48;8.10;;;4.97;;
75021;SDS011;63583;49.976;20.182;2023-05-07T11:29:15;9.32;;;5.47;;
75021;SDS011;63583;49.976;20.182;2023-05-07T11:31:48;8.63;;;5.40;;
75021;SDS011;63583;49.976;20.182;2023-05-07T11:34:20;7.75;;;4.90;;
75021;SDS011;63583;49.976;20.182;2023-05-07T11:36:46;7.47;;;5.13;;
75021;SDS011;63583;49.976;20.182;2023-05-07T11:39:26;8.73;;;5.07;;
75021;SDS011;63583;49.976;20.182;2023-05-07T11:41:56;8.27;;;6.07;;
75021;SDS011;63583;49.976;20.182;2023-05-07T11:44:22;7.40;;;4.85;;
75021;SDS011;63583;49.976;20.182;2023-05-07T11:46:48;8.57;;;5.07;;
75021;SDS011;63583;49.976;20.182;2023-05-07T11:49:14;7.65;;;4.75;;
75021;SDS011;63583;49.976;20.182;2023-05-07T11:51:40;6.35;;;3.88;;
75021;SDS011;63583;49.976;20.182;2023-05-07T11:54:08;7.72;;;4.45;;
75021;SDS011;63583;49.976;20.182;2023-05-07T11:56:36;7.82;;;5.07;;
75021;SDS011;63583;49.976;20.182;2023-05-07T11:59:02;5.30;;;3.53;;
75021;SDS011;63583;49.976;20.182;2023-05-07T12:01:28;8.82;;;3.88;;
75021;SDS011;63583;49.976;20.182;2023-05-07T12:03:54;5.82;;;3.92;;
75021;SDS011;63583;49.976;20.182;2023-05-07T12:06:19;6.93;;;4.13;;
75021;SDS011;63583;49.976;20.182;2023-05-07T12:08:45;7.30;;;4.45;;
75021;SDS011;63583;49.976;20.182;2023-05-07T12:11:29;9.30;;;5.32;;
75021;SDS011;63583;49.976;20.182;2023-05-07T12:13:55;7.18;;;4.20;;
75021;SDS011;63583;49.976;20.182;2023-05-07T12:16:21;8.35;;;4.65;;
75021;SDS011;63583;49.976;20.182;2023-05-07T12:18:47;5.20;;;3.70;;
75021;SDS011;63583;49.976;20.182;2023-05-07T12:21:13;6.82;;;3.78;;
75021;SDS011;63583;49.976;20.182;2023-05-07T12:23:39;4.75;;;3.42;;
75021;SDS011;63583;49.976;20.182;2023-05-07T12:26:05;8.32;;;4.18;;
75021;SDS011;63583;49.976;20.182;2023-05-07T12:28:30;6.55;;;4.50;;
75021;SDS011;63583;49.976;20.182;2023-05-07T12:31:00;5.30;;;3.92;;
75021;SDS011;63583;49.976;20.182;2023-05-07T12:33:27;6.90;;;3.70;;
75021;SDS011;63583;49.976;20.182;2023-05-07T12:35:54;5.53;;;3.63;;
75021;SDS011;63583;49.976;20.182;2023-05-07T12:38:20;6.75;;;3.80;;
75021;SDS011;63583;49.976;20.182;2023-05-07T12:40:47;6.03;;;3.65;;
75021;SDS011;63583;49.976;20.182;2023-05-07T12:43:20;5.20;;;3.78;;
75021;SDS011;63583;49.976;20.182;2023-05-07T12:45:47;7.00;;;3.78;;
75021;SDS011;63583;49.976;20.182;2023-05-07T12:48:14;5.60;;;3.58;;
75021;SDS011;63583;49.976;20.182;2023-05-07T12:50:40;7.63;;;4.03;;
75021;SDS011;63583;49.976;20.182;2023-05-07T12:53:06;5.07;;;3.70;;
75021;SDS011;63583;49.976;20.182;2023-05-07T12:55:39;6.03;;;3.90;;
75021;SDS011;63583;49.976;20.182;2023-05-07T12:58:06;5.82;;;3.63;;
75021;SDS011;63583;49.976;20.182;2023-05-07T13:00:35;6.65;;;3.78;;
75021;SDS011;63583;49.976;20.182;2023-05-07T13:03:02;6.45;;;3.15;;
75021;SDS011;63583;49.976;20.182;2023-05-07T13:05:28;5.65;;;3.70;;
75021;SDS011;63583;49.976;20.182;2023-05-07T13:07:56;4.68;;;3.05;;
75021;SDS011;63583;49.976;20.182;2023-05-07T13:10:22;5.45;;;3.10;;
75021;SDS011;63583;49.976;20.182;2023-05-07T13:12:49;4.65;;;3.38;;
75021;SDS011;63583;49.976;20.182;2023-05-07T13:15:15;6.25;;;3.70;;
75021;SDS011;63583;49.976;20.182;2023-05-07T13:17:41;5.32;;;3.95;;
75021;SDS011;63583;49.976;20.182;2023-05-07T13:20:07;5.90;;;3.70;;
75021;SDS011;63583;49.976;20.182;2023-05-07T13:22:34;8.00;;;3.78;;
75021;SDS011;63583;49.976;20.182;2023-05-07T13:25:00;6.88;;;3.72;;
75021;SDS011;63583;49.976;20.182;2023-05-07T13:27:26;7.78;;;4.10;;
75021;SDS011;63583;49.976;20.182;2023-05-07T13:29:51;6.10;;;3.83;;
75021;SDS011;63583;49.976;20.182;2023-05-07T13:32:17;5.40;;;3.58;;
75021;SDS011;63583;49.976;20.182;2023-05-07T13:34:43;7.93;;;4.50;;
75021;SDS011;63583;49.976;20.182;2023-05-07T13:37:08;8.77;;;5.25;;
75021;SDS011;63583;49.976;20.182;2023-05-07T13:39:34;7.50;;;4.30;;
75021;SDS011;63583;49.976;20.182;2023-05-07T13:42:00;8.38;;;4.53;;
75021;SDS011;63583;49.976;20.182;2023-05-07T13:44:26;6.00;;;4.05;;
75021;SDS011;63583;49.976;20.182;2023-05-07T13:46:52;8.80;;;4.88;;
75021;SDS011;63583;49.976;20.182;2023-05-07T13:49:17;6.43;;;4.20;;
75021;SDS011;63583;49.976;20.182;2023-05-07T13:51:43;6.70;;;4.30;;
75021;SDS011;63583;49.976;20.182;2023-05-07T13:54:08;6.45;;;4.28;;
75021;SDS011;63583;49.976;20.182;2023-05-07T13:56:34;6.70;;;4.35;;
75021;SDS011;63583;49.976;20.182;2023-05-07T13:59:00;5.72;;;3.88;;
75021;SDS011;63583;49.976;20.182;2023-05-07T14:01:26;8.38;;;4.90;;
75021;SDS011;63583;49.976;20.182;2023-05-07T14:03:52;7.32;;;3.80;;
75021;SDS011;63583;49.976;20.182;2023-05-07T14:06:18;5.35;;;4.03;;
75021;SDS011;63583;49.976;20.182;2023-05-07T14:08:43;6.53;;;4.95;;
75021;SDS011;63583;49.976;20.182;2023-05-07T14:11:09;6.30;;;4.45;;
75021;SDS011;63583;49.976;20.182;2023-05-07T14:13:34;7.05;;;4.15;;
75021;SDS011;63583;49.976;20.182;2023-05-07T14:16:00;6.75;;;4.22;;
75021;SDS011;63583;49.976;20.182;2023-05-07T14:18:26;6.10;;;4.03;;
75021;SDS011;63583;49.976;20.182;2023-05-07T14:20:54;7.70;;;3.75;;
75021;SDS011;63583;49.976;20.182;2023-05-07T14:23:19;5.43;;;3.50;;
75021;SDS011;63583;49.976;20.182;2023-05-07T14:25:50;9.55;;;4.55;;
75021;SDS011;63583;49.976;20.182;2023-05-07T14:28:16;8.75;;;5.28;;
75021;SDS011;63583;49.976;20.182;2023-05-07T14:30:42;8.18;;;4.78;;
75021;SDS011;63583;49.976;20.182;2023-05-07T14:33:08;9.85;;;4.80;;
75021;SDS011;63583;49.976;20.182;2023-05-07T14:35:33;10.00;;;5.40;;
75021;SDS011;63583;49.976;20.182;2023-05-07T14:37:59;8.02;;;4.97;;